TimeEDT,TemperatureF,Dew PointF,Humidity,Sea Level PressureIn,VisibilityMPH,Wind Direction,Wind SpeedMPH,Gust SpeedMPH,PrecipitationIn,Events,Conditions,WindDirDegrees,DateUTC
12:53 AM,75.9,70.0,82,29.99,10.0,East,11.5,-,N/A,,Clear,100,2011-10-17 04:53:00
1:53 AM,75.9,71.1,85,29.99,10.0,East,12.7,-,N/A,,Clear,80,2011-10-17 05:53:00
2:53 AM,75.0,71.1,87,29.96,10.0,ENE,11.5,-,N/A,,Clear,70,2011-10-17 06:53:00
3:53 AM,75.0,71.1,87,29.95,10.0,ENE,11.5,-,N/A,,Clear,70,2011-10-17 07:53:00
4:27 AM,75.2,71.6,89,29.94,10.0,East,11.5,-,N/A,,Mostly Cloudy,80,2011-10-17 08:27:00
4:50 AM,75.2,71.6,89,29.94,10.0,East,11.5,-,N/A,,Scattered Clouds,80,2011-10-17 08:50:00
4:53 AM,75.0,71.1,87,29.94,10.0,East,11.5,-,N/A,,Partly Cloudy,80,2011-10-17 08:53:00
6:53 AM,75.0,71.1,87,29.95,10.0,East,11.5,-,N/A,,Clear,100,2011-10-17 10:53:00
7:53 AM,75.0,71.1,87,29.96,10.0,East,11.5,-,N/A,,Clear,100,2011-10-17 11:53:00
8:53 AM,75.0,71.1,87,29.98,10.0,East,10.4,-,N/A,,Clear,90,2011-10-17 12:53:00
10:53 AM,75.9,72.0,87,29.98,10.0,ENE,12.7,-,N/A,,Clear,70,2011-10-17 14:53:00
11:53 AM,78.1,72.0,81,29.96,10.0,ESE,12.7,-,N/A,,Clear,110,2011-10-17 15:53:00
12:53 PM,79.0,73.0,82,29.94,10.0,East,8.1,-,N/A,,Partly Cloudy,90,2011-10-17 16:53:00
1:53 PM,80.1,72.0,76,29.91,10.0,SE,11.5,-,N/A,,Overcast,140,2011-10-17 17:53:00
2:53 PM,80.1,73.0,79,29.87,10.0,SE,10.4,-,N/A,,Clear,130,2011-10-17 18:53:00
3:53 PM,80.1,72.0,76,29.85,10.0,SE,16.1,-,N/A,,Partly Cloudy,130,2011-10-17 19:53:00
4:53 PM,80.1,72.0,76,29.85,10.0,ESE,13.8,-,N/A,,Clear,120,2011-10-17 20:53:00
5:53 PM,79.0,72.0,79,29.86,10.0,ESE,10.4,-,N/A,,Partly Cloudy,120,2011-10-17 21:53:00
6:53 PM,79.0,72.0,79,29.87,10.0,SE,11.5,-,N/A,,Clear,140,2011-10-17 22:53:00
8:53 PM,77.0,71.1,82,29.87,10.0,SE,9.2,-,N/A,,Overcast,140,2011-10-18 00:53:00
9:53 PM,77.0,72.0,84,29.86,10.0,SE,13.8,-,N/A,,Mostly Cloudy,130,2011-10-18 01:53:00
10:53 PM,77.0,72.0,84,29.86,10.0,SE,16.1,-,N/A,,Overcast,140,2011-10-18 02:53:00
11:53 PM,75.9,71.1,85,29.85,10.0,SE,9.2,-,N/A,,Scattered Clouds,140,2011-10-18 03:53:00